Time,TemperatureF,DewpointF,PressureIn,WindDirection,WindDirectionDegrees,WindSpeedMPH,WindSpeedGustMPH,Humidity,HourlyPrecipIn,Conditions,Clouds,dailyrainin,SolarRadiationWatts/m^2,SoftwareType,DateUTC
2013-10-13 00:01:00,42.1,38.0,30.27,SW,216,0.0,-999.0,85,-99.99,,,0.01,0,weatherlink.com 1.10,2013-10-13 05:01:00,
2013-10-13 00:16:00,41.8,38.0,30.28,SW,223,0.0,-999.0,86,-99.99,,,0.01,0,weatherlink.com 1.10,2013-10-13 05:16:00,
2013-10-13 00:32:00,41.5,38.0,30.29,SW,223,0.0,-999.0,86,-99.99,,,0.01,0,weatherlink.com 1.10,2013-10-13 05:32:00,
2013-10-13 00:46:00,41.1,37.0,30.29,SW,223,0.0,-999.0,86,-99.99,,,0.00,0,weatherlink.com 1.10,2013-10-13 05:46:00,
2013-10-13 01:02:00,40.7,37.0,30.30,SW,223,0.0,-999.0,87,-99.99,,,0.00,0,weatherlink.com 1.10,2013-10-13 06:02:00,
2013-10-13 01:16:00,40.5,37.0,30.31,SW,223,0.0,-999.0,87,-99.99,,,0.00,0,weatherlink.com 1.10,2013-10-13 06:16:00,
2013-10-13 01:31:00,40.7,37.0,30.31,SW,223,0.0,-999.0,87,-99.99,,,0.00,0,weatherlink.com 1.10,2013-10-13 06:31:00,
2013-10-13 01:46:00,40.8,37.0,30.33,SW,223,0.0,-999.0,86,-99.99,,,0.00,0,weatherlink.com 1.10,2013-10-13 06:46:00,
2013-10-13 02:04:00,40.1,36.0,30.33,SW,223,0.0,-999.0,86,-99.99,,,0.00,0,weatherlink.com 1.10,2013-10-13 07:04:00,
2013-10-13 02:17:00,39.7,36.0,30.34,SW,223,0.0,-999.0,87,-99.99,,,0.00,0,weatherlink.com 1.10,2013-10-13 07:17:00,
2013-10-13 02:34:00,39.1,36.0,30.35,SW,225,1.0,-999.0,88,-99.99,,,0.00,0,weatherlink.com 1.10,2013-10-13 07:34:00,
2013-10-13 02:47:00,39.2,36.0,30.35,SW,224,0.0,-999.0,88,-99.99,,,0.00,0,weatherlink.com 1.10,2013-10-13 07:47:00,
2013-10-13 03:04:00,39.0,36.0,30.35,SW,224,0.0,-999.0,88,-99.99,,,0.00,0,weatherlink.com 1.10,2013-10-13 08:04:00,
2013-10-13 03:17:00,38.6,35.0,30.35,SW,224,0.0,-999.0,88,-99.99,,,0.00,0,weatherlink.com 1.10,2013-10-13 08:17:00,
2013-10-13 03:34:00,38.2,35.0,30.36,SW,224,0.0,-999.0,89,-99.99,,,0.00,0,weatherlink.com 1.10,2013-10-13 08:34:00,
2013-10-13 03:49:00,38.1,36.0,30.35,SW,224,0.0,-999.0,90,-99.99,,,0.00,0,weatherlink.com 1.10,2013-10-13 08:49:00,
2013-10-13 04:04:00,38.0,35.0,30.36,SW,224,0.0,-999.0,90,-99.99,,,0.00,0,weatherlink.com 1.10,2013-10-13 09:04:00,
2013-10-13 04:19:00,37.4,35.0,30.37,SW,224,0.0,-999.0,90,-99.99,,,0.00,0,weatherlink.com 1.10,2013-10-13 09:19:00,
2013-10-13 04:34:00,37.4,35.0,30.38,SW,224,0.0,-999.0,90,-99.99,,,0.00,0,weatherlink.com 1.10,2013-10-13 09:34:00,
2013-10-13 04:49:00,37.4,35.0,30.38,SW,224,0.0,-999.0,91,-99.99,,,0.00,0,weatherlink.com 1.10,2013-10-13 09:49:00,
2013-10-13 05:04:00,37.2,35.0,30.39,SW,224,0.0,-999.0,91,-99.99,,,0.00,0,weatherlink.com 1.10,2013-10-13 10:04:00,
2013-10-13 05:19:00,36.9,35.0,30.39,SW,224,0.0,-999.0,91,-99.99,,,0.00,0,weatherlink.com 1.10,2013-10-13 10:19:00,
2013-10-13 05:34:00,36.8,35.0,30.40,SW,224,0.0,-999.0,91,-99.99,,,0.00,0,weatherlink.com 1.10,2013-10-13 10:34:00,
2013-10-13 05:49:00,36.6,35.0,30.41,SW,224,0.0,-999.0,92,-99.99,,,0.00,0,weatherlink.com 1.10,2013-10-13 10:49:00,
2013-10-13 06:04:00,36.4,34.0,30.41,SW,224,0.0,-999.0,92,-99.99,,,0.00,0,weatherlink.com 1.10,2013-10-13 11:04:00,
2013-10-13 06:19:00,36.2,34.0,30.42,SW,224,0.0,-999.0,92,-99.99,,,0.00,0,weatherlink.com 1.10,2013-10-13 11:19:00,
2013-10-13 06:34:00,36.5,34.0,30.42,SW,224,0.0,-999.0,92,-99.99,,,0.00,0,weatherlink.com 1.10,2013-10-13 11:34:00,
2013-10-13 06:49:00,36.2,34.0,30.43,SW,224,0.0,-999.0,92,-99.99,,,0.00,0,weatherlink.com 1.10,2013-10-13 11:49:00,
2013-10-13 07:04:00,36.2,34.0,30.43,SW,224,0.0,-999.0,92,-99.99,,,0.00,0,weatherlink.com 1.10,2013-10-13 12:04:00,
2013-10-13 07:19:00,36.0,34.0,30.44,SW,224,0.0,-999.0,93,-99.99,,,0.00,0,weatherlink.com 1.10,2013-10-13 12:19:00,
2013-10-13 07:34:00,35.0,33.0,30.45,SW,224,0.0,-999.0,92,-99.99,,,0.00,5,weatherlink.com 1.10,2013-10-13 12:34:00,
2013-10-13 07:49:00,35.3,34.0,30.46,SW,224,0.0,-999.0,93,-99.99,,,0.00,11,weatherlink.com 1.10,2013-10-13 12:49:00,
2013-10-13 08:04:00,35.7,34.0,30.46,SW,224,0.0,-999.0,93,-99.99,,,0.00,16,weatherlink.com 1.10,2013-10-13 13:04:00,
2013-10-13 08:20:00,36.5,35.0,30.47,SW,232,0.0,-999.0,94,-99.99,,,0.00,19,weatherlink.com 1.10,2013-10-13 13:20:00,
2013-10-13 08:35:00,37.2,36.0,30.47,SW,232,0.0,-999.0,94,-99.99,,,0.00,23,weatherlink.com 1.10,2013-10-13 13:35:00,
2013-10-13 08:50:00,37.9,36.0,30.48,SW,232,0.0,-999.0,94,-99.99,,,0.00,26,weatherlink.com 1.10,2013-10-13 13:50:00,
2013-10-13 09:05:00,38.9,37.0,30.49,SW,232,0.0,-999.0,94,-99.99,,,0.00,28,weatherlink.com 1.10,2013-10-13 14:05:00,
2013-10-13 09:20:00,41.4,40.0,30.49,NNW,340,1.0,-999.0,93,-99.99,,,0.00,125,weatherlink.com 1.10,2013-10-13 14:20:00,
2013-10-13 09:35:00,43.1,40.0,30.50,NNW,336,1.0,-999.0,90,-99.99,,,0.00,141,weatherlink.com 1.10,2013-10-13 14:35:00,
2013-10-13 09:50:00,45.5,41.0,30.50,North,350,0.0,-999.0,85,-99.99,,,0.00,339,weatherlink.com 1.10,2013-10-13 14:50:00,
2013-10-13 10:06:00,47.6,42.0,30.51,WNW,299,1.0,-999.0,82,-99.99,,,0.00,374,weatherlink.com 1.10,2013-10-13 15:06:00,
2013-10-13 10:21:00,48.7,42.0,30.51,NNW,334,0.0,-999.0,77,-99.99,,,0.00,420,weatherlink.com 1.10,2013-10-13 15:21:00,
2013-10-13 10:36:00,49.5,42.0,30.52,NW,306,2.0,-999.0,76,-99.99,,,0.00,450,weatherlink.com 1.10,2013-10-13 15:36:00,
2013-10-13 10:51:00,52.1,44.0,30.52,NW,307,1.0,-999.0,73,-99.99,,,0.00,476,weatherlink.com 1.10,2013-10-13 15:51:00,
2013-10-13 11:06:00,52.4,44.0,30.53,WNW,291,1.0,-999.0,74,-99.99,,,0.00,506,weatherlink.com 1.10,2013-10-13 16:06:00,
2013-10-13 11:21:00,53.4,42.0,30.52,NNE,27,0.0,-999.0,66,-99.99,,,0.00,527,weatherlink.com 1.10,2013-10-13 16:21:00,
2013-10-13 11:36:00,54.4,42.0,30.52,West,265,2.0,-999.0,63,-99.99,,,0.00,557,weatherlink.com 1.10,2013-10-13 16:36:00,
2013-10-13 11:52:00,54.5,41.0,30.52,West,273,4.0,-999.0,61,-99.99,,,0.00,563,weatherlink.com 1.10,2013-10-13 16:52:00,
2013-10-13 12:22:00,55.3,40.0,30.52,SW,229,3.0,-999.0,56,-99.99,,,0.00,671,weatherlink.com 1.10,2013-10-13 17:22:00,
2013-10-13 12:37:00,56.0,37.0,30.51,North,351,2.0,-999.0,50,-99.99,,,0.00,654,weatherlink.com 1.10,2013-10-13 17:37:00,
2013-10-13 12:52:00,55.1,35.0,30.51,North,349,2.0,-999.0,47,-99.99,,,0.00,591,weatherlink.com 1.10,2013-10-13 17:52:00,
2013-10-13 13:07:00,55.8,38.0,30.50,NNW,344,6.0,-999.0,52,-99.99,,,0.00,425,weatherlink.com 1.10,2013-10-13 18:07:00,
2013-10-13 13:22:00,55.7,36.0,30.50,NNE,18,2.0,-999.0,48,-99.99,,,0.00,640,weatherlink.com 1.10,2013-10-13 18:22:00,
2013-10-13 13:37:00,56.7,36.0,30.49,NNE,30,0.0,-999.0,46,-99.99,,,0.00,612,weatherlink.com 1.10,2013-10-13 18:37:00,
2013-10-13 13:52:00,57.1,37.0,30.49,ENE,65,3.0,-999.0,48,-99.99,,,0.00,601,weatherlink.com 1.10,2013-10-13 18:52:00,
2013-10-13 14:08:00,56.7,36.0,30.49,NW,310,4.0,-999.0,47,-99.99,,,0.00,598,weatherlink.com 1.10,2013-10-13 19:08:00,
2013-10-13 14:22:00,57.4,37.0,30.48,North,355,1.0,-999.0,46,-99.99,,,0.00,617,weatherlink.com 1.10,2013-10-13 19:22:00,
2013-10-13 14:38:00,57.6,38.0,30.48,West,264,1.0,-999.0,49,-99.99,,,0.00,541,weatherlink.com 1.10,2013-10-13 19:38:00,
2013-10-13 14:53:00,57.3,39.0,30.47,NW,321,3.0,-999.0,50,-99.99,,,0.00,513,weatherlink.com 1.10,2013-10-13 19:53:00,
2013-10-13 15:08:00,58.2,37.0,30.47,West,279,2.0,-999.0,46,-99.99,,,0.00,485,weatherlink.com 1.10,2013-10-13 20:08:00,
2013-10-13 15:23:00,57.7,38.0,30.46,NNW,331,1.0,-999.0,48,-99.99,,,0.00,459,weatherlink.com 1.10,2013-10-13 20:23:00,
2013-10-13 15:38:00,57.6,36.0,30.46,WNW,288,0.0,-999.0,45,-99.99,,,0.00,422,weatherlink.com 1.10,2013-10-13 20:38:00,
2013-10-13 15:53:00,57.8,38.0,30.46,NNW,348,2.0,-999.0,48,-99.99,,,0.00,392,weatherlink.com 1.10,2013-10-13 20:53:00,
2013-10-13 16:08:00,57.5,36.0,30.46,South,187,0.0,-999.0,45,-99.99,,,0.00,49,weatherlink.com 1.10,2013-10-13 21:08:00,
2013-10-13 16:23:00,58.1,35.0,30.46,SSW,208,2.0,-999.0,43,-99.99,,,0.00,160,weatherlink.com 1.10,2013-10-13 21:23:00,
2013-10-13 16:38:00,57.4,37.0,30.46,West,275,4.0,-999.0,47,-99.99,,,0.00,42,weatherlink.com 1.10,2013-10-13 21:38:00,
2013-10-13 16:53:00,57.2,35.0,30.46,WNW,299,0.0,-999.0,44,-99.99,,,0.00,39,weatherlink.com 1.10,2013-10-13 21:53:00,
2013-10-13 17:09:00,57.2,35.0,30.46,NW,326,0.0,-999.0,44,-99.99,,,0.00,30,weatherlink.com 1.10,2013-10-13 22:09:00,
2013-10-13 17:24:00,56.8,36.0,30.45,NW,326,0.0,-999.0,46,-99.99,,,0.00,32,weatherlink.com 1.10,2013-10-13 22:24:00,
2013-10-13 17:39:00,56.4,37.0,30.45,NW,326,0.0,-999.0,49,-99.99,,,0.00,21,weatherlink.com 1.10,2013-10-13 22:39:00,
2013-10-13 17:54:00,54.6,38.0,30.45,NW,326,0.0,-999.0,53,-99.99,,,0.00,18,weatherlink.com 1.10,2013-10-13 22:54:00,
2013-10-13 18:09:00,53.4,38.0,30.45,NW,326,0.0,-999.0,57,-99.99,,,0.00,16,weatherlink.com 1.10,2013-10-13 23:09:00,
2013-10-13 18:24:00,52.5,40.0,30.45,NW,326,0.0,-999.0,63,-99.99,,,0.00,11,weatherlink.com 1.10,2013-10-13 23:24:00,
2013-10-13 18:39:00,51.3,40.0,30.45,NW,326,0.0,-999.0,66,-99.99,,,0.00,0,weatherlink.com 1.10,2013-10-13 23:39:00,
2013-10-13 18:54:00,49.8,41.0,30.45,NW,326,0.0,-999.0,73,-99.99,,,0.00,0,weatherlink.com 1.10,2013-10-13 23:54:00,
2013-10-13 19:10:00,48.3,41.0,30.45,NW,326,0.0,-999.0,75,-99.99,,,0.00,0,weatherlink.com 1.10,2013-10-14 00:10:00,
2013-10-13 19:25:00,47.4,41.0,30.45,NW,326,0.0,-999.0,77,-99.99,,,0.00,0,weatherlink.com 1.10,2013-10-14 00:25:00,
2013-10-13 19:40:00,47.0,41.0,30.45,NW,326,0.0,-999.0,79,-99.99,,,0.00,0,weatherlink.com 1.10,2013-10-14 00:40:00,
2013-10-13 19:55:00,46.1,40.0,30.46,NW,326,0.0,-999.0,80,-99.99,,,0.00,0,weatherlink.com 1.10,2013-10-14 00:55:00,
2013-10-13 20:10:00,45.2,40.0,30.46,NW,326,0.0,-999.0,81,-99.99,,,0.00,0,weatherlink.com 1.10,2013-10-14 01:10:00,
2013-10-13 20:25:00,44.4,39.0,30.46,NW,326,0.0,-999.0,82,-99.99,,,0.00,0,weatherlink.com 1.10,2013-10-14 01:25:00,
2013-10-13 20:41:00,44.1,40.0,30.46,NW,326,0.0,-999.0,84,-99.99,,,0.00,0,weatherlink.com 1.10,2013-10-14 01:41:00,
2013-10-13 20:56:00,43.8,39.0,30.47,NW,326,0.0,-999.0,84,-99.99,,,0.00,0,weatherlink.com 1.10,2013-10-14 01:56:00,
2013-10-13 21:11:00,43.6,38.0,30.46,NW,326,0.0,-999.0,80,-99.99,,,0.00,0,weatherlink.com 1.10,2013-10-14 02:11:00,
2013-10-13 21:26:00,44.0,39.0,30.46,NW,326,0.0,-999.0,81,-99.99,,,0.00,0,weatherlink.com 1.10,2013-10-14 02:26:00,
2013-10-13 21:40:00,43.4,38.0,30.46,NW,326,0.0,-999.0,82,-99.99,,,0.00,0,weatherlink.com 1.10,2013-10-14 02:40:00,
2013-10-13 21:56:00,43.0,38.0,30.46,NW,326,0.0,-999.0,83,-99.99,,,0.00,0,weatherlink.com 1.10,2013-10-14 02:56:00,
2013-10-13 22:11:00,43.0,38.0,30.45,NW,326,0.0,-999.0,83,-99.99,,,0.00,0,weatherlink.com 1.10,2013-10-14 03:11:00,
2013-10-13 22:26:00,42.6,38.0,30.46,NW,326,0.0,-999.0,84,-99.99,,,0.00,0,weatherlink.com 1.10,2013-10-14 03:26:00,
2013-10-13 22:41:00,42.1,38.0,30.45,NW,326,0.0,-999.0,85,-99.99,,,0.00,0,weatherlink.com 1.10,2013-10-14 03:41:00,
2013-10-13 22:57:00,41.3,37.0,30.45,NW,326,0.0,-999.0,86,-99.99,,,0.00,0,weatherlink.com 1.10,2013-10-14 03:57:00,
2013-10-13 23:12:00,40.8,37.0,30.46,NW,326,0.0,-999.0,87,-99.99,,,0.00,0,weatherlink.com 1.10,2013-10-14 04:12:00,
2013-10-13 23:27:00,40.7,38.0,30.46,NW,326,0.0,-999.0,88,-99.99,,,0.00,0,weatherlink.com 1.10,2013-10-14 04:27:00,
2013-10-13 23:42:00,41.5,38.0,30.46,NW,326,0.0,-999.0,87,-99.99,,,0.00,0,weatherlink.com 1.10,2013-10-14 04:42:00,
2013-10-13 23:57:00,40.9,37.0,30.46,NW,326,0.0,-999.0,87,-99.99,,,0.00,0,weatherlink.com 1.10,2013-10-14 04:57:00,